sensor_id;sensor_type;location;lat;lon;timestamp;temperature;humidity
9564;DHT22;4820;50.870;4.702;2024-01-30T00:01:55;10.90;99.90
9564;DHT22;4820;50.870;4.702;2024-01-30T00:04:21;10.90;99.90
9564;DHT22;4820;50.870;4.702;2024-01-30T00:06:47;11.00;99.90
9564;DHT22;4820;50.870;4.702;2024-01-30T00:09:13;11.00;99.90
9564;DHT22;4820;50.870;4.702;2024-01-30T00:11:39;11.00;99.90
9564;DHT22;4820;50.870;4.702;2024-01-30T00:14:05;11.00;99.90
9564;DHT22;4820;50.870;4.702;2024-01-30T00:16:31;11.10;99.90
9564;DHT22;4820;50.870;4.702;2024-01-30T00:18:57;11.10;99.90
9564;DHT22;4820;50.870;4.702;2024-01-30T00:21:23;11.10;99.90
9564;DHT22;4820;50.870;4.702;2024-01-30T00:23:49;11.10;99.90
9564;DHT22;4820;50.870;4.702;2024-01-30T00:26:15;11.10;99.90
9564;DHT22;4820;50.870;4.702;2024-01-30T00:28:41;11.10;99.90
9564;DHT22;4820;50.870;4.702;2024-01-30T00:31:07;11.10;99.90
9564;DHT22;4820;50.870;4.702;2024-01-30T00:33:35;11.10;99.90
9564;DHT22;4820;50.870;4.702;2024-01-30T00:36:01;11.10;99.90
9564;DHT22;4820;50.870;4.702;2024-01-30T00:38:26;11.20;99.90
9564;DHT22;4820;50.870;4.702;2024-01-30T00:40:52;11.20;99.90
9564;DHT22;4820;50.870;4.702;2024-01-30T00:43:18;11.20;99.90
9564;DHT22;4820;50.870;4.702;2024-01-30T00:45:44;11.20;99.90
9564;DHT22;4820;50.870;4.702;2024-01-30T00:48:10;11.20;99.90
9564;DHT22;4820;50.870;4.702;2024-01-30T00:50:35;11.30;99.90
9564;DHT22;4820;50.870;4.702;2024-01-30T00:53:01;11.20;99.90
9564;DHT22;4820;50.870;4.702;2024-01-30T00:55:27;11.30;99.90
9564;DHT22;4820;50.870;4.702;2024-01-30T00:57:52;11.30;99.90
9564;DHT22;4820;50.870;4.702;2024-01-30T01:00:18;11.30;99.90
9564;DHT22;4820;50.870;4.702;2024-01-30T01:02:46;11.30;99.90
9564;DHT22;4820;50.870;4.702;2024-01-30T01:05:12;11.40;99.90
9564;DHT22;4820;50.870;4.702;2024-01-30T01:07:38;11.40;99.90
9564;DHT22;4820;50.870;4.702;2024-01-30T01:10:06;11.40;99.90
9564;DHT22;4820;50.870;4.702;2024-01-30T01:12:31;11.40;99.90
9564;DHT22;4820;50.870;4.702;2024-01-30T01:14:57;11.40;99.90
9564;DHT22;4820;50.870;4.702;2024-01-30T01:17:24;11.40;99.90
9564;DHT22;4820;50.870;4.702;2024-01-30T01:19:49;11.50;99.90
9564;DHT22;4820;50.870;4.702;2024-01-30T01:22:16;11.50;99.90
9564;DHT22;4820;50.870;4.702;2024-01-30T01:24:42;11.50;99.90
9564;DHT22;4820;50.870;4.702;2024-01-30T01:27:08;11.50;99.90
9564;DHT22;4820;50.870;4.702;2024-01-30T01:29:36;11.50;99.90
9564;DHT22;4820;50.870;4.702;2024-01-30T01:32:05;11.50;99.90
9564;DHT22;4820;50.870;4.702;2024-01-30T01:34:31;11.50;99.90
9564;DHT22;4820;50.870;4.702;2024-01-30T01:36:57;11.40;99.90
9564;DHT22;4820;50.870;4.702;2024-01-30T01:39:24;11.50;99.90
9564;DHT22;4820;50.870;4.702;2024-01-30T01:41:49;11.40;99.90
9564;DHT22;4820;50.870;4.702;2024-01-30T01:44:15;11.50;99.90
9564;DHT22;4820;50.870;4.702;2024-01-30T01:46:41;11.50;99.90
9564;DHT22;4820;50.870;4.702;2024-01-30T01:49:07;11.50;99.90
9564;DHT22;4820;50.870;4.702;2024-01-30T01:51:35;11.50;99.90
9564;DHT22;4820;50.870;4.702;2024-01-30T01:54:05;11.50;99.90
9564;DHT22;4820;50.870;4.702;2024-01-30T01:56:31;11.50;99.90
9564;DHT22;4820;50.870;4.702;2024-01-30T01:59:08;11.50;99.90
9564;DHT22;4820;50.870;4.702;2024-01-30T02:01:36;11.50;99.90
9564;DHT22;4820;50.870;4.702;2024-01-30T02:04:04;11.50;99.90
9564;DHT22;4820;50.870;4.702;2024-01-30T02:06:30;11.40;99.90
9564;DHT22;4820;50.870;4.702;2024-01-30T02:08:56;11.40;99.90
9564;DHT22;4820;50.870;4.702;2024-01-30T02:11:22;11.40;99.90
9564;DHT22;4820;50.870;4.702;2024-01-30T02:13:49;11.40;99.90
9564;DHT22;4820;50.870;4.702;2024-01-30T02:16:14;11.40;99.90
9564;DHT22;4820;50.870;4.702;2024-01-30T02:18:40;11.40;99.90
9564;DHT22;4820;50.870;4.702;2024-01-30T02:21:10;11.40;99.90
9564;DHT22;4820;50.870;4.702;2024-01-30T02:23:39;11.30;99.90
9564;DHT22;4820;50.870;4.702;2024-01-30T02:26:06;11.30;99.90
9564;DHT22;4820;50.870;4.702;2024-01-30T02:28:31;11.30;99.90
9564;DHT22;4820;50.870;4.702;2024-01-30T02:30:57;11.30;99.90
9564;DHT22;4820;50.870;4.702;2024-01-30T02:33:23;11.30;99.90
9564;DHT22;4820;50.870;4.702;2024-01-30T02:35:49;11.40;99.90
9564;DHT22;4820;50.870;4.702;2024-01-30T02:38:15;11.40;99.90
9564;DHT22;4820;50.870;4.702;2024-01-30T02:40:42;11.40;99.90
9564;DHT22;4820;50.870;4.702;2024-01-30T02:43:08;11.50;99.90
9564;DHT22;4820;50.870;4.702;2024-01-30T02:45:33;11.50;99.90
9564;DHT22;4820;50.870;4.702;2024-01-30T02:47:59;11.40;99.90
9564;DHT22;4820;50.870;4.702;2024-01-30T02:50:25;11.50;99.90
9564;DHT22;4820;50.870;4.702;2024-01-30T02:52:51;11.50;99.90
9564;DHT22;4820;50.870;4.702;2024-01-30T02:55:16;11.40;99.90
9564;DHT22;4820;50.870;4.702;2024-01-30T02:57:45;11.50;99.90
9564;DHT22;4820;50.870;4.702;2024-01-30T03:00:12;11.50;99.90
9564;DHT22;4820;50.870;4.702;2024-01-30T03:02:38;11.50;99.90
9564;DHT22;4820;50.870;4.702;2024-01-30T03:05:05;11.50;99.90
9564;DHT22;4820;50.870;4.702;2024-01-30T03:07:31;11.50;99.90
9564;DHT22;4820;50.870;4.702;2024-01-30T03:09:57;11.50;99.90
9564;DHT22;4820;50.870;4.702;2024-01-30T03:12:23;11.50;99.90
9564;DHT22;4820;50.870;4.702;2024-01-30T03:14:50;11.50;99.90
9564;DHT22;4820;50.870;4.702;2024-01-30T03:17:16;11.50;99.90
9564;DHT22;4820;50.870;4.702;2024-01-30T03:19:41;11.50;99.90
9564;DHT22;4820;50.870;4.702;2024-01-30T03:22:07;11.50;99.90
9564;DHT22;4820;50.870;4.702;2024-01-30T03:24:33;11.50;99.90
9564;DHT22;4820;50.870;4.702;2024-01-30T03:26:59;11.50;99.90
9564;DHT22;4820;50.870;4.702;2024-01-30T03:29:25;11.50;99.90
9564;DHT22;4820;50.870;4.702;2024-01-30T03:31:50;11.50;99.90
9564;DHT22;4820;50.870;4.702;2024-01-30T03:34:16;11.40;99.90
9564;DHT22;4820;50.870;4.702;2024-01-30T03:36:43;11.50;99.90
9564;DHT22;4820;50.870;4.702;2024-01-30T03:39:09;11.50;99.90
9564;DHT22;4820;50.870;4.702;2024-01-30T03:41:36;11.40;99.90
9564;DHT22;4820;50.870;4.702;2024-01-30T03:44:02;11.40;99.90
9564;DHT22;4820;50.870;4.702;2024-01-30T03:46:28;11.40;99.90
9564;DHT22;4820;50.870;4.702;2024-01-30T03:48:54;11.40;99.90
9564;DHT22;4820;50.870;4.702;2024-01-30T03:51:20;11.40;99.90
9564;DHT22;4820;50.870;4.702;2024-01-30T03:53:46;11.40;99.90
9564;DHT22;4820;50.870;4.702;2024-01-30T03:56:12;11.40;99.90
9564;DHT22;4820;50.870;4.702;2024-01-30T03:58:41;11.40;99.90
9564;DHT22;4820;50.870;4.702;2024-01-30T04:01:07;11.40;99.90
9564;DHT22;4820;50.870;4.702;2024-01-30T04:03:33;11.50;99.90
9564;DHT22;4820;50.870;4.702;2024-01-30T04:05:59;11.40;99.90
9564;DHT22;4820;50.870;4.702;2024-01-30T04:08:24;11.40;99.90
9564;DHT22;4820;50.870;4.702;2024-01-30T04:10:50;11.40;99.90
9564;DHT22;4820;50.870;4.702;2024-01-30T04:13:16;11.40;99.90
9564;DHT22;4820;50.870;4.702;2024-01-30T04:15:42;11.50;99.90
9564;DHT22;4820;50.870;4.702;2024-01-30T04:18:07;11.40;99.90
9564;DHT22;4820;50.870;4.702;2024-01-30T04:20:33;11.40;99.90
9564;DHT22;4820;50.870;4.702;2024-01-30T04:22:59;11.40;99.90
9564;DHT22;4820;50.870;4.702;2024-01-30T04:25:25;11.40;99.90
9564;DHT22;4820;50.870;4.702;2024-01-30T04:27:50;11.40;99.90
9564;DHT22;4820;50.870;4.702;2024-01-30T04:30:16;11.40;99.90
9564;DHT22;4820;50.870;4.702;2024-01-30T04:32:43;11.40;99.90
9564;DHT22;4820;50.870;4.702;2024-01-30T04:35:09;11.50;99.90
9564;DHT22;4820;50.870;4.702;2024-01-30T04:37:35;11.50;99.90
9564;DHT22;4820;50.870;4.702;2024-01-30T04:40:01;11.50;99.90
9564;DHT22;4820;50.870;4.702;2024-01-30T04:42:28;11.50;99.90
9564;DHT22;4820;50.870;4.702;2024-01-30T04:44:54;11.50;99.90
9564;DHT22;4820;50.870;4.702;2024-01-30T04:47:20;11.50;99.90
9564;DHT22;4820;50.870;4.702;2024-01-30T04:49:45;11.50;99.90
9564;DHT22;4820;50.870;4.702;2024-01-30T04:52:11;11.50;99.90
9564;DHT22;4820;50.870;4.702;2024-01-30T04:54:37;11.50;99.90
9564;DHT22;4820;50.870;4.702;2024-01-30T04:57:03;11.40;99.90
9564;DHT22;4820;50.870;4.702;2024-01-30T04:59:28;11.40;99.90
9564;DHT22;4820;50.870;4.702;2024-01-30T05:01:54;11.40;99.90
9564;DHT22;4820;50.870;4.702;2024-01-30T05:04:20;11.40;99.90
9564;DHT22;4820;50.870;4.702;2024-01-30T05:06:47;11.40;99.90
9564;DHT22;4820;50.870;4.702;2024-01-30T05:09:13;11.40;99.90
9564;DHT22;4820;50.870;4.702;2024-01-30T05:11:39;11.40;99.90
9564;DHT22;4820;50.870;4.702;2024-01-30T05:14:06;11.40;99.90
9564;DHT22;4820;50.870;4.702;2024-01-30T05:16:32;11.40;99.90
9564;DHT22;4820;50.870;4.702;2024-01-30T05:18:58;11.40;99.90
9564;DHT22;4820;50.870;4.702;2024-01-30T05:21:24;11.50;99.90
9564;DHT22;4820;50.870;4.702;2024-01-30T05:23:50;11.50;99.90
9564;DHT22;4820;50.870;4.702;2024-01-30T05:26:16;11.50;99.90
9564;DHT22;4820;50.870;4.702;2024-01-30T05:28:44;11.50;99.90
9564;DHT22;4820;50.870;4.702;2024-01-30T05:31:10;11.40;99.90
9564;DHT22;4820;50.870;4.702;2024-01-30T05:33:36;11.50;99.90
9564;DHT22;4820;50.870;4.702;2024-01-30T05:36:02;11.50;99.90
9564;DHT22;4820;50.870;4.702;2024-01-30T05:38:29;11.50;99.90
9564;DHT22;4820;50.870;4.702;2024-01-30T05:40:56;11.40;99.90
9564;DHT22;4820;50.870;4.702;2024-01-30T05:43:24;11.40;99.90
9564;DHT22;4820;50.870;4.702;2024-01-30T05:45:51;11.40;99.90
9564;DHT22;4820;50.870;4.702;2024-01-30T05:48:18;11.40;99.90
9564;DHT22;4820;50.870;4.702;2024-01-30T05:50:43;11.40;99.90
9564;DHT22;4820;50.870;4.702;2024-01-30T05:53:11;11.40;99.90
9564;DHT22;4820;50.870;4.702;2024-01-30T05:55:37;11.40;99.90
9564;DHT22;4820;50.870;4.702;2024-01-30T05:58:04;11.50;99.90
9564;DHT22;4820;50.870;4.702;2024-01-30T06:00:30;11.40;99.90
9564;DHT22;4820;50.870;4.702;2024-01-30T06:02:55;11.40;99.90
9564;DHT22;4820;50.870;4.702;2024-01-30T06:05:22;11.40;99.90
9564;DHT22;4820;50.870;4.702;2024-01-30T06:07:48;11.40;99.90
9564;DHT22;4820;50.870;4.702;2024-01-30T06:10:14;11.40;99.90
9564;DHT22;4820;50.870;4.702;2024-01-30T06:12:39;11.40;99.90
9564;DHT22;4820;50.870;4.702;2024-01-30T06:15:05;11.40;99.90
9564;DHT22;4820;50.870;4.702;2024-01-30T06:17:32;11.30;99.90
9564;DHT22;4820;50.870;4.702;2024-01-30T06:19:58;11.40;99.90
9564;DHT22;4820;50.870;4.702;2024-01-30T06:22:24;11.40;99.90
9564;DHT22;4820;50.870;4.702;2024-01-30T06:24:50;11.40;99.90
9564;DHT22;4820;50.870;4.702;2024-01-30T06:27:16;11.40;99.90
9564;DHT22;4820;50.870;4.702;2024-01-30T06:29:43;11.40;99.90
9564;DHT22;4820;50.870;4.702;2024-01-30T06:32:09;11.40;99.90
9564;DHT22;4820;50.870;4.702;2024-01-30T06:34:36;11.40;99.90
9564;DHT22;4820;50.870;4.702;2024-01-30T06:37:04;11.40;99.90
9564;DHT22;4820;50.870;4.702;2024-01-30T06:39:29;11.40;99.90
9564;DHT22;4820;50.870;4.702;2024-01-30T06:41:55;11.30;99.90
9564;DHT22;4820;50.870;4.702;2024-01-30T06:44:22;11.30;99.90
9564;DHT22;4820;50.870;4.702;2024-01-30T06:46:47;11.30;99.90
9564;DHT22;4820;50.870;4.702;2024-01-30T06:49:13;11.30;99.90
9564;DHT22;4820;50.870;4.702;2024-01-30T06:51:39;11.30;99.90
9564;DHT22;4820;50.870;4.702;2024-01-30T06:54:05;11.30;99.90
9564;DHT22;4820;50.870;4.702;2024-01-30T06:56:32;11.30;99.90
9564;DHT22;4820;50.870;4.702;2024-01-30T06:58:58;11.30;99.90
9564;DHT22;4820;50.870;4.702;2024-01-30T07:01:28;11.30;99.90
9564;DHT22;4820;50.870;4.702;2024-01-30T07:03:55;11.20;99.90
9564;DHT22;4820;50.870;4.702;2024-01-30T07:06:22;11.20;99.90
9564;DHT22;4820;50.870;4.702;2024-01-30T07:08:49;11.20;99.90
9564;DHT22;4820;50.870;4.702;2024-01-30T07:11:22;11.20;99.90
9564;DHT22;4820;50.870;4.702;2024-01-30T07:13:50;11.20;99.90
9564;DHT22;4820;50.870;4.702;2024-01-30T07:16:16;11.30;99.90
9564;DHT22;4820;50.870;4.702;2024-01-30T07:18:43;11.20;99.90
9564;DHT22;4820;50.870;4.702;2024-01-30T07:21:08;11.20;99.90
9564;DHT22;4820;50.870;4.702;2024-01-30T07:23:35;11.20;99.90
9564;DHT22;4820;50.870;4.702;2024-01-30T07:26:05;11.20;99.90
9564;DHT22;4820;50.870;4.702;2024-01-30T07:28:32;11.20;99.90
9564;DHT22;4820;50.870;4.702;2024-01-30T07:31:03;11.20;99.90
9564;DHT22;4820;50.870;4.702;2024-01-30T07:33:32;11.20;99.90
9564;DHT22;4820;50.870;4.702;2024-01-30T07:35:57;11.20;99.90
9564;DHT22;4820;50.870;4.702;2024-01-30T07:38:23;11.20;99.90
9564;DHT22;4820;50.870;4.702;2024-01-30T07:40:50;11.30;99.90
9564;DHT22;4820;50.870;4.702;2024-01-30T07:43:16;11.20;99.90
9564;DHT22;4820;50.870;4.702;2024-01-30T07:45:45;11.20;99.90
9564;DHT22;4820;50.870;4.702;2024-01-30T07:48:12;11.20;99.90
9564;DHT22;4820;50.870;4.702;2024-01-30T07:50:38;11.20;99.90
9564;DHT22;4820;50.870;4.702;2024-01-30T07:53:04;11.20;99.90
9564;DHT22;4820;50.870;4.702;2024-01-30T07:55:30;11.30;99.90
9564;DHT22;4820;50.870;4.702;2024-01-30T07:57:59;11.30;99.90
9564;DHT22;4820;50.870;4.702;2024-01-30T08:00:26;11.30;99.90
9564;DHT22;4820;50.870;4.702;2024-01-30T08:02:52;11.40;99.90
9564;DHT22;4820;50.870;4.702;2024-01-30T08:05:19;11.40;99.90
9564;DHT22;4820;50.870;4.702;2024-01-30T08:07:48;11.40;99.90
9564;DHT22;4820;50.870;4.702;2024-01-30T08:10:14;11.50;99.90
9564;DHT22;4820;50.870;4.702;2024-01-30T08:12:39;11.50;99.90
9564;DHT22;4820;50.870;4.702;2024-01-30T08:15:05;11.50;99.90
9564;DHT22;4820;50.870;4.702;2024-01-30T08:17:31;11.60;99.90
9564;DHT22;4820;50.870;4.702;2024-01-30T08:19:58;11.60;99.90
9564;DHT22;4820;50.870;4.702;2024-01-30T08:22:25;11.60;99.90
9564;DHT22;4820;50.870;4.702;2024-01-30T08:24:51;11.60;99.90
9564;DHT22;4820;50.870;4.702;2024-01-30T08:27:18;11.60;99.90
9564;DHT22;4820;50.870;4.702;2024-01-30T08:29:43;11.60;99.90
9564;DHT22;4820;50.870;4.702;2024-01-30T08:32:09;11.60;99.90
9564;DHT22;4820;50.870;4.702;2024-01-30T08:34:34;11.60;99.90
9564;DHT22;4820;50.870;4.702;2024-01-30T08:37:00;11.60;99.90
9564;DHT22;4820;50.870;4.702;2024-01-30T08:39:26;11.60;99.90
9564;DHT22;4820;50.870;4.702;2024-01-30T08:41:51;11.60;99.90
9564;DHT22;4820;50.870;4.702;2024-01-30T08:44:17;11.70;99.90
9564;DHT22;4820;50.870;4.702;2024-01-30T08:46:46;11.70;99.90
9564;DHT22;4820;50.870;4.702;2024-01-30T08:49:13;11.70;99.90
9564;DHT22;4820;50.870;4.702;2024-01-30T08:51:41;11.70;99.90
9564;DHT22;4820;50.870;4.702;2024-01-30T08:54:07;11.70;99.90
9564;DHT22;4820;50.870;4.702;2024-01-30T08:56:33;11.70;99.90
9564;DHT22;4820;50.870;4.702;2024-01-30T08:58:58;11.80;99.90
9564;DHT22;4820;50.870;4.702;2024-01-30T09:01:25;11.90;99.90
9564;DHT22;4820;50.870;4.702;2024-01-30T09:03:51;11.90;99.90
9564;DHT22;4820;50.870;4.702;2024-01-30T09:06:16;11.90;99.90
9564;DHT22;4820;50.870;4.702;2024-01-30T09:08:42;12.00;99.90
9564;DHT22;4820;50.870;4.702;2024-01-30T09:11:14;12.00;99.90
9564;DHT22;4820;50.870;4.702;2024-01-30T09:13:40;12.10;99.90
9564;DHT22;4820;50.870;4.702;2024-01-30T09:16:06;12.10;99.90
9564;DHT22;4820;50.870;4.702;2024-01-30T09:18:32;12.20;99.90
9564;DHT22;4820;50.870;4.702;2024-01-30T09:20:59;12.20;99.90
9564;DHT22;4820;50.870;4.702;2024-01-30T09:23:26;12.20;99.90
9564;DHT22;4820;50.870;4.702;2024-01-30T09:25:52;12.20;99.90
9564;DHT22;4820;50.870;4.702;2024-01-30T09:28:18;12.20;99.90
9564;DHT22;4820;50.870;4.702;2024-01-30T09:30:43;12.20;99.90
9564;DHT22;4820;50.870;4.702;2024-01-30T09:33:09;12.20;99.90
9564;DHT22;4820;50.870;4.702;2024-01-30T09:35:36;12.20;99.90
9564;DHT22;4820;50.870;4.702;2024-01-30T09:38:02;12.20;99.90
9564;DHT22;4820;50.870;4.702;2024-01-30T09:40:28;12.20;99.90
9564;DHT22;4820;50.870;4.702;2024-01-30T09:42:54;12.10;99.90
9564;DHT22;4820;50.870;4.702;2024-01-30T09:45:24;12.20;99.90
9564;DHT22;4820;50.870;4.702;2024-01-30T09:47:49;12.10;99.90
9564;DHT22;4820;50.870;4.702;2024-01-30T09:50:16;12.10;99.90
9564;DHT22;4820;50.870;4.702;2024-01-30T09:52:46;12.10;99.90
9564;DHT22;4820;50.870;4.702;2024-01-30T09:55:12;12.10;99.90
9564;DHT22;4820;50.870;4.702;2024-01-30T09:57:38;12.20;99.90
9564;DHT22;4820;50.870;4.702;2024-01-30T10:00:06;12.20;99.90
9564;DHT22;4820;50.870;4.702;2024-01-30T10:02:35;12.20;99.90
9564;DHT22;4820;50.870;4.702;2024-01-30T10:05:01;12.20;99.90
9564;DHT22;4820;50.870;4.702;2024-01-30T10:07:27;12.20;99.90
9564;DHT22;4820;50.870;4.702;2024-01-30T10:09:55;12.20;99.90
9564;DHT22;4820;50.870;4.702;2024-01-30T10:12:22;12.20;99.90
9564;DHT22;4820;50.870;4.702;2024-01-30T10:14:48;12.20;99.90
9564;DHT22;4820;50.870;4.702;2024-01-30T10:17:15;12.20;99.90
9564;DHT22;4820;50.870;4.702;2024-01-30T10:19:41;12.20;99.90
9564;DHT22;4820;50.870;4.702;2024-01-30T10:22:07;12.20;99.90
9564;DHT22;4820;50.870;4.702;2024-01-30T10:24:34;12.20;99.90
9564;DHT22;4820;50.870;4.702;2024-01-30T10:27:00;12.10;99.90
9564;DHT22;4820;50.870;4.702;2024-01-30T10:29:27;12.10;99.90
9564;DHT22;4820;50.870;4.702;2024-01-30T10:32:01;12.10;99.90
9564;DHT22;4820;50.870;4.702;2024-01-30T10:34:28;12.20;99.90
9564;DHT22;4820;50.870;4.702;2024-01-30T10:37:08;12.20;99.90
9564;DHT22;4820;50.870;4.702;2024-01-30T10:39:39;12.20;99.90
9564;DHT22;4820;50.870;4.702;2024-01-30T10:42:06;12.20;99.90
9564;DHT22;4820;50.870;4.702;2024-01-30T10:47:31;12.30;99.90
9564;DHT22;4820;50.870;4.702;2024-01-30T10:49:59;12.30;99.90
9564;DHT22;4820;50.870;4.702;2024-01-30T10:52:26;12.40;99.90
9564;DHT22;4820;50.870;4.702;2024-01-30T10:54:53;12.30;99.90
9564;DHT22;4820;50.870;4.702;2024-01-30T10:57:19;12.30;99.90
9564;DHT22;4820;50.870;4.702;2024-01-30T10:59:48;12.30;99.90
9564;DHT22;4820;50.870;4.702;2024-01-30T11:02:15;12.30;99.90
9564;DHT22;4820;50.870;4.702;2024-01-30T11:04:41;12.20;99.90
9564;DHT22;4820;50.870;4.702;2024-01-30T11:07:17;12.20;99.90
9564;DHT22;4820;50.870;4.702;2024-01-30T11:10:13;12.20;99.90
9564;DHT22;4820;50.870;4.702;2024-01-30T11:12:40;12.20;99.90
9564;DHT22;4820;50.870;4.702;2024-01-30T11:15:12;12.30;99.90
9564;DHT22;4820;50.870;4.702;2024-01-30T11:20:20;12.20;99.90
9564;DHT22;4820;50.870;4.702;2024-01-30T11:22:47;12.20;99.90
9564;DHT22;4820;50.870;4.702;2024-01-30T11:25:14;12.20;99.90
9564;DHT22;4820;50.870;4.702;2024-01-30T11:27:44;12.20;99.90
9564;DHT22;4820;50.870;4.702;2024-01-30T11:30:11;12.20;99.90
9564;DHT22;4820;50.870;4.702;2024-01-30T11:32:46;12.20;99.90
9564;DHT22;4820;50.870;4.702;2024-01-30T11:35:13;12.20;99.90
9564;DHT22;4820;50.870;4.702;2024-01-30T11:37:39;12.20;99.90
9564;DHT22;4820;50.870;4.702;2024-01-30T11:40:05;12.20;99.90
9564;DHT22;4820;50.870;4.702;2024-01-30T11:42:32;12.10;99.90
9564;DHT22;4820;50.870;4.702;2024-01-30T11:45:00;12.10;99.90
9564;DHT22;4820;50.870;4.702;2024-01-30T11:47:28;12.00;99.90
9564;DHT22;4820;50.870;4.702;2024-01-30T11:49:54;12.00;99.90
9564;DHT22;4820;50.870;4.702;2024-01-30T11:52:19;12.00;99.90
9564;DHT22;4820;50.870;4.702;2024-01-30T11:54:45;12.00;99.90
9564;DHT22;4820;50.870;4.702;2024-01-30T11:57:11;12.10;99.90
9564;DHT22;4820;50.870;4.702;2024-01-30T11:59:37;12.10;99.90
9564;DHT22;4820;50.870;4.702;2024-01-30T12:02:02;12.10;99.90
9564;DHT22;4820;50.870;4.702;2024-01-30T12:04:29;12.10;99.90
9564;DHT22;4820;50.870;4.702;2024-01-30T12:06:55;12.00;99.90
9564;DHT22;4820;50.870;4.702;2024-01-30T12:09:20;12.00;99.90
9564;DHT22;4820;50.870;4.702;2024-01-30T12:11:48;12.00;99.90
9564;DHT22;4820;50.870;4.702;2024-01-30T12:14:15;12.00;99.90
9564;DHT22;4820;50.870;4.702;2024-01-30T12:16:41;12.10;99.90
9564;DHT22;4820;50.870;4.702;2024-01-30T12:19:07;12.10;99.90
9564;DHT22;4820;50.870;4.702;2024-01-30T12:21:34;12.10;99.90
9564;DHT22;4820;50.870;4.702;2024-01-30T12:24:00;12.10;99.90
9564;DHT22;4820;50.870;4.702;2024-01-30T12:26:26;12.00;99.90
9564;DHT22;4820;50.870;4.702;2024-01-30T12:28:55;12.00;99.90
9564;DHT22;4820;50.870;4.702;2024-01-30T12:31:32;11.90;99.90
9564;DHT22;4820;50.870;4.702;2024-01-30T12:34:00;11.90;99.90
9564;DHT22;4820;50.870;4.702;2024-01-30T12:36:26;11.80;99.90
9564;DHT22;4820;50.870;4.702;2024-01-30T12:38:51;11.80;99.90
9564;DHT22;4820;50.870;4.702;2024-01-30T12:41:17;11.80;99.90
9564;DHT22;4820;50.870;4.702;2024-01-30T12:43:43;11.90;99.90
9564;DHT22;4820;50.870;4.702;2024-01-30T12:46:09;12.00;99.90
9564;DHT22;4820;50.870;4.702;2024-01-30T12:48:35;12.00;99.90
9564;DHT22;4820;50.870;4.702;2024-01-30T12:51:01;12.00;99.90
9564;DHT22;4820;50.870;4.702;2024-01-30T12:53:27;12.10;99.90
9564;DHT22;4820;50.870;4.702;2024-01-30T12:55:53;12.00;99.90
9564;DHT22;4820;50.870;4.702;2024-01-30T12:58:20;11.90;99.90
9564;DHT22;4820;50.870;4.702;2024-01-30T13:00:47;11.80;99.90
9564;DHT22;4820;50.870;4.702;2024-01-30T13:03:13;11.70;99.90
9564;DHT22;4820;50.870;4.702;2024-01-30T13:05:38;11.60;99.90
9564;DHT22;4820;50.870;4.702;2024-01-30T13:08:04;11.60;99.90
9564;DHT22;4820;50.870;4.702;2024-01-30T13:10:31;11.60;99.90
9564;DHT22;4820;50.870;4.702;2024-01-30T13:12:57;11.70;99.90
9564;DHT22;4820;50.870;4.702;2024-01-30T13:15:22;11.90;99.90
9564;DHT22;4820;50.870;4.702;2024-01-30T13:17:50;12.10;99.90
9564;DHT22;4820;50.870;4.702;2024-01-30T13:20:15;12.30;99.90
9564;DHT22;4820;50.870;4.702;2024-01-30T13:22:45;12.50;99.90
9564;DHT22;4820;50.870;4.702;2024-01-30T13:25:10;12.60;99.90
9564;DHT22;4820;50.870;4.702;2024-01-30T13:27:37;12.70;99.90
9564;DHT22;4820;50.870;4.702;2024-01-30T13:30:03;12.60;99.90
9564;DHT22;4820;50.870;4.702;2024-01-30T13:32:29;12.50;99.90
9564;DHT22;4820;50.870;4.702;2024-01-30T13:34:56;12.30;99.90
9564;DHT22;4820;50.870;4.702;2024-01-30T13:37:22;12.20;99.90
9564;DHT22;4820;50.870;4.702;2024-01-30T13:39:48;12.10;99.90
9564;DHT22;4820;50.870;4.702;2024-01-30T13:42:14;12.00;99.90
9564;DHT22;4820;50.870;4.702;2024-01-30T13:44:39;11.90;99.90
9564;DHT22;4820;50.870;4.702;2024-01-30T13:47:05;11.90;99.90
9564;DHT22;4820;50.870;4.702;2024-01-30T13:49:31;12.00;99.90
9564;DHT22;4820;50.870;4.702;2024-01-30T13:51:57;12.10;99.90
9564;DHT22;4820;50.870;4.702;2024-01-30T13:54:24;12.10;99.90
9564;DHT22;4820;50.870;4.702;2024-01-30T13:56:49;12.00;99.90
9564;DHT22;4820;50.870;4.702;2024-01-30T13:59:15;12.00;99.90
9564;DHT22;4820;50.870;4.702;2024-01-30T14:01:41;11.90;99.90
9564;DHT22;4820;50.870;4.702;2024-01-30T14:04:07;11.90;99.90
9564;DHT22;4820;50.870;4.702;2024-01-30T14:06:33;11.90;99.90
9564;DHT22;4820;50.870;4.702;2024-01-30T14:08:58;11.90;99.90
9564;DHT22;4820;50.870;4.702;2024-01-30T14:11:24;11.80;99.90
9564;DHT22;4820;50.870;4.702;2024-01-30T14:13:50;11.70;99.90
9564;DHT22;4820;50.870;4.702;2024-01-30T14:16:16;11.60;99.90
9564;DHT22;4820;50.870;4.702;2024-01-30T14:18:41;11.60;99.90
9564;DHT22;4820;50.870;4.702;2024-01-30T14:21:07;11.60;99.90
9564;DHT22;4820;50.870;4.702;2024-01-30T14:23:33;11.60;99.90
9564;DHT22;4820;50.870;4.702;2024-01-30T14:26:00;11.60;99.90
9564;DHT22;4820;50.870;4.702;2024-01-30T14:28:26;11.60;99.90
9564;DHT22;4820;50.870;4.702;2024-01-30T14:30:52;11.60;99.90
9564;DHT22;4820;50.870;4.702;2024-01-30T14:33:18;11.60;99.90
9564;DHT22;4820;50.870;4.702;2024-01-30T14:35:43;11.60;99.90
9564;DHT22;4820;50.870;4.702;2024-01-30T14:38:09;11.60;99.90
9564;DHT22;4820;50.870;4.702;2024-01-30T14:40:35;11.60;99.90
9564;DHT22;4820;50.870;4.702;2024-01-30T14:43:01;11.50;99.90
9564;DHT22;4820;50.870;4.702;2024-01-30T14:45:26;11.50;99.90
9564;DHT22;4820;50.870;4.702;2024-01-30T14:47:52;11.40;99.90
9564;DHT22;4820;50.870;4.702;2024-01-30T14:50:18;11.50;99.90
9564;DHT22;4820;50.870;4.702;2024-01-30T14:52:43;11.50;99.90
9564;DHT22;4820;50.870;4.702;2024-01-30T14:55:10;11.40;99.90
9564;DHT22;4820;50.870;4.702;2024-01-30T14:57:36;11.40;99.90
9564;DHT22;4820;50.870;4.702;2024-01-30T15:00:05;11.40;99.90
9564;DHT22;4820;50.870;4.702;2024-01-30T15:02:32;11.30;99.90
9564;DHT22;4820;50.870;4.702;2024-01-30T15:04:57;11.30;99.90
9564;DHT22;4820;50.870;4.702;2024-01-30T15:07:23;11.30;99.90
9564;DHT22;4820;50.870;4.702;2024-01-30T15:09:49;11.30;99.90
9564;DHT22;4820;50.870;4.702;2024-01-30T15:12:15;11.20;99.90
9564;DHT22;4820;50.870;4.702;2024-01-30T15:14:40;11.20;99.90
9564;DHT22;4820;50.870;4.702;2024-01-30T15:17:06;11.20;99.90
9564;DHT22;4820;50.870;4.702;2024-01-30T15:19:32;11.20;99.90
9564;DHT22;4820;50.870;4.702;2024-01-30T15:21:57;11.30;99.90
9564;DHT22;4820;50.870;4.702;2024-01-30T15:24:23;11.20;99.90
9564;DHT22;4820;50.870;4.702;2024-01-30T15:26:51;11.20;99.90
9564;DHT22;4820;50.870;4.702;2024-01-30T15:29:17;11.20;99.90
9564;DHT22;4820;50.870;4.702;2024-01-30T15:31:43;11.10;99.90
9564;DHT22;4820;50.870;4.702;2024-01-30T15:34:09;11.00;99.90
9564;DHT22;4820;50.870;4.702;2024-01-30T15:36:34;10.90;99.90
9564;DHT22;4820;50.870;4.702;2024-01-30T15:39:00;10.90;99.90
9564;DHT22;4820;50.870;4.702;2024-01-30T15:41:26;10.80;99.90
9564;DHT22;4820;50.870;4.702;2024-01-30T15:43:51;10.70;99.90
9564;DHT22;4820;50.870;4.702;2024-01-30T15:46:17;10.70;99.90
9564;DHT22;4820;50.870;4.702;2024-01-30T15:48:43;10.70;99.90
9564;DHT22;4820;50.870;4.702;2024-01-30T15:51:08;10.60;99.90
9564;DHT22;4820;50.870;4.702;2024-01-30T15:53:34;10.60;99.90
9564;DHT22;4820;50.870;4.702;2024-01-30T15:56:00;10.60;99.90
9564;DHT22;4820;50.870;4.702;2024-01-30T15:58:27;10.60;99.90
9564;DHT22;4820;50.870;4.702;2024-01-30T16:00:54;10.50;99.90
9564;DHT22;4820;50.870;4.702;2024-01-30T16:03:19;10.40;99.90